Time,TemperatureF,DewpointF,PressureIn,WindDirection,WindDirectionDegrees,WindSpeedMPH,WindSpeedGustMPH,Humidity,HourlyPrecipIn,Conditions,Clouds,dailyrainin,SoftwareType,DateUTC
2013-07-05 00:02:00,73.0,49.0,-100.00,WSW,248,10.0,-999.0,43,0.00,,,-99.99,,2013-07-05 07:02:00,
2013-07-05 00:12:00,73.0,49.0,-100.00,WSW,248,10.0,-999.0,43,0.00,,,-99.99,,2013-07-05 07:12:00,
2013-07-05 00:23:00,73.0,49.0,-100.00,WSW,248,10.0,-999.0,43,0.00,,,-99.99,,2013-07-05 07:23:00,
2013-07-05 00:33:00,73.0,49.0,-100.00,WSW,248,10.0,-999.0,43,0.00,,,-99.99,,2013-07-05 07:33:00,
2013-07-05 00:43:00,73.0,49.0,-100.00,WSW,248,10.0,-999.0,43,0.00,,,-99.99,,2013-07-05 07:43:00,
2013-07-05 01:02:00,70.0,49.0,-100.00,WSW,247,18.0,-999.0,47,0.00,,,-99.99,,2013-07-05 08:02:00,
2013-07-05 01:12:00,70.0,49.0,-100.00,WSW,247,18.0,-999.0,47,0.00,,,-99.99,,2013-07-05 08:12:00,
2013-07-05 01:22:00,70.0,49.0,-100.00,WSW,247,18.0,-999.0,47,0.00,,,-99.99,,2013-07-05 08:22:00,
2013-07-05 01:33:00,70.0,49.0,-100.00,WSW,247,18.0,-999.0,47,0.00,,,-99.99,,2013-07-05 08:33:00,
2013-07-05 01:43:00,70.0,49.0,-100.00,WSW,247,18.0,-999.0,47,0.00,,,-99.99,,2013-07-05 08:43:00,
2013-07-05 02:14:00,67.0,49.0,-100.00,West,263,11.0,-999.0,52,0.00,,,-99.99,,2013-07-05 09:14:00,
2013-07-05 02:24:00,67.0,49.0,-100.00,West,263,11.0,-999.0,52,0.00,,,-99.99,,2013-07-05 09:24:00,
2013-07-05 02:35:00,67.0,49.0,-100.00,West,263,11.0,-999.0,52,0.00,,,-99.99,,2013-07-05 09:35:00,
2013-07-05 02:44:00,67.0,49.0,-100.00,West,263,11.0,-999.0,52,0.00,,,-99.99,,2013-07-05 09:44:00,
2013-07-05 03:05:00,65.0,50.0,-100.00,WSW,255,16.0,-999.0,58,0.00,,,-99.99,,2013-07-05 10:05:00,
2013-07-05 03:23:00,65.0,50.0,-100.00,WSW,255,16.0,-999.0,58,0.00,,,-99.99,,2013-07-05 10:23:00,
2013-07-05 03:35:00,65.0,50.0,-100.00,WSW,255,16.0,-999.0,58,0.00,,,-99.99,,2013-07-05 10:35:00,
2013-07-05 04:23:00,63.0,51.0,-100.00,WSW,246,12.0,-999.0,66,0.00,,,-99.99,,2013-07-05 11:23:00,
2013-07-05 04:35:00,63.0,51.0,-100.00,WSW,246,12.0,-999.0,66,0.00,,,-99.99,,2013-07-05 11:35:00,
2013-07-05 04:44:00,63.0,51.0,-100.00,WSW,246,12.0,-999.0,66,0.00,,,-99.99,,2013-07-05 11:44:00,
2013-07-05 05:05:00,61.0,52.0,-100.00,WSW,256,14.0,-999.0,74,0.00,,,-99.99,,2013-07-05 12:05:00,
2013-07-05 05:13:00,61.0,52.0,-100.00,WSW,256,14.0,-999.0,74,0.00,,,-99.99,,2013-07-05 12:13:00,
2013-07-05 05:24:00,61.0,52.0,-100.00,WSW,256,14.0,-999.0,74,0.00,,,-99.99,,2013-07-05 12:24:00,
2013-07-05 05:43:00,61.0,52.0,-100.00,WSW,256,14.0,-999.0,74,0.00,,,-99.99,,2013-07-05 12:43:00,
2013-07-05 06:05:00,60.0,53.0,-100.00,WSW,255,14.0,-999.0,78,0.00,,,-99.99,,2013-07-05 13:05:00,
2013-07-05 06:13:00,60.0,53.0,-100.00,WSW,255,14.0,-999.0,78,0.00,,,-99.99,,2013-07-05 13:13:00,
2013-07-05 06:23:00,60.0,53.0,-100.00,WSW,255,14.0,-999.0,78,0.00,,,-99.99,,2013-07-05 13:23:00,
2013-07-05 06:35:00,60.0,53.0,-100.00,WSW,255,14.0,-999.0,78,0.00,,,-99.99,,2013-07-05 13:35:00,
2013-07-05 06:44:00,60.0,53.0,-100.00,WSW,255,14.0,-999.0,78,0.00,,,-99.99,,2013-07-05 13:44:00,
2013-07-05 07:13:00,59.0,53.0,-100.00,West,260,15.0,-999.0,80,0.00,,,-99.99,,2013-07-05 14:13:00,
2013-07-05 07:44:00,59.0,53.0,-100.00,West,260,15.0,-999.0,80,0.00,,,-99.99,,2013-07-05 14:44:00,
2013-07-05 08:05:00,61.0,53.0,-100.00,West,264,16.0,-999.0,75,0.00,,,-99.99,,2013-07-05 15:05:00,
2013-07-05 08:13:00,61.0,53.0,-100.00,West,264,16.0,-999.0,75,0.00,,,-99.99,,2013-07-05 15:13:00,
2013-07-05 08:22:00,61.0,53.0,-100.00,West,264,16.0,-999.0,75,0.00,,,-99.99,,2013-07-05 15:22:00,
2013-07-05 08:33:00,61.0,53.0,-100.00,West,264,16.0,-999.0,75,0.00,,,-99.99,,2013-07-05 15:33:00,
2013-07-05 08:43:00,61.0,53.0,-100.00,West,264,16.0,-999.0,75,0.00,,,-99.99,,2013-07-05 15:43:00,
2013-07-05 09:01:00,63.0,53.0,-100.00,West,264,17.0,-999.0,69,0.00,,,-99.99,,2013-07-05 16:01:00,
2013-07-05 09:33:00,63.0,53.0,-100.00,West,264,17.0,-999.0,69,0.00,,,-99.99,,2013-07-05 16:33:00,
2013-07-05 09:44:00,63.0,53.0,-100.00,West,264,17.0,-999.0,69,0.00,,,-99.99,,2013-07-05 16:44:00,
2013-07-05 10:01:00,65.0,54.0,-100.00,West,272,14.0,-999.0,66,0.00,,,-99.99,,2013-07-05 17:01:00,
2013-07-05 10:12:00,65.0,54.0,-100.00,West,272,14.0,-999.0,66,0.00,,,-99.99,,2013-07-05 17:12:00,
2013-07-05 10:22:00,65.0,54.0,-100.00,West,272,14.0,-999.0,66,0.00,,,-99.99,,2013-07-05 17:22:00,
2013-07-05 10:33:00,65.0,54.0,-100.00,West,272,14.0,-999.0,66,0.00,,,-99.99,,2013-07-05 17:33:00,
2013-07-05 10:42:00,65.0,54.0,-100.00,West,272,14.0,-999.0,66,0.00,,,-99.99,,2013-07-05 17:42:00,
2013-07-05 11:01:00,68.0,54.0,-100.00,West,266,12.0,-999.0,61,0.00,,,-99.99,,2013-07-05 18:01:00,
2013-07-05 11:11:00,68.0,54.0,-100.00,West,266,12.0,-999.0,61,0.00,,,-99.99,,2013-07-05 18:11:00,
2013-07-05 11:22:00,68.0,54.0,-100.00,West,266,12.0,-999.0,61,0.00,,,-99.99,,2013-07-05 18:22:00,
2013-07-05 11:33:00,68.0,54.0,-100.00,West,266,12.0,-999.0,61,0.00,,,-99.99,,2013-07-05 18:33:00,
2013-07-05 11:42:00,68.0,54.0,-100.00,West,266,12.0,-999.0,61,0.00,,,-99.99,,2013-07-05 18:42:00,
2013-07-05 12:01:00,70.0,54.0,-100.00,WSW,242,11.0,-999.0,58,0.00,,,-99.99,,2013-07-05 19:01:00,
2013-07-05 12:12:00,70.0,54.0,-100.00,WSW,242,11.0,-999.0,58,0.00,,,-99.99,,2013-07-05 19:12:00,
2013-07-05 12:22:00,70.0,54.0,-100.00,WSW,242,11.0,-999.0,58,0.00,,,-99.99,,2013-07-05 19:22:00,
2013-07-05 12:33:00,70.0,54.0,-100.00,WSW,242,11.0,-999.0,58,0.00,,,-99.99,,2013-07-05 19:33:00,
2013-07-05 12:42:00,70.0,54.0,-100.00,WSW,242,11.0,-999.0,58,0.00,,,-99.99,,2013-07-05 19:42:00,
2013-07-05 13:01:00,71.0,53.0,-100.00,West,264,12.0,-999.0,53,0.00,,,-99.99,,2013-07-05 20:01:00,
2013-07-05 13:11:00,71.0,53.0,-100.00,West,264,12.0,-999.0,53,0.00,,,-99.99,,2013-07-05 20:11:00,
2013-07-05 13:22:00,71.0,53.0,-100.00,West,264,12.0,-999.0,53,0.00,,,-99.99,,2013-07-05 20:22:00,
2013-07-05 13:33:00,71.0,53.0,-100.00,West,264,12.0,-999.0,53,0.00,,,-99.99,,2013-07-05 20:33:00,
2013-07-05 13:43:00,71.0,53.0,-100.00,West,264,12.0,-999.0,53,0.00,,,-99.99,,2013-07-05 20:43:00,
2013-07-05 14:01:00,74.0,54.0,-100.00,SW,232,13.0,-999.0,50,0.00,,,-99.99,,2013-07-05 21:01:00,
2013-07-05 14:11:00,74.0,54.0,-100.00,SW,232,13.0,-999.0,50,0.00,,,-99.99,,2013-07-05 21:11:00,
2013-07-05 14:21:00,74.0,54.0,-100.00,SW,232,13.0,-999.0,50,0.00,,,-99.99,,2013-07-05 21:21:00,
2013-07-05 14:34:00,74.0,54.0,-100.00,SW,232,13.0,-999.0,50,0.00,,,-99.99,,2013-07-05 21:34:00,
2013-07-05 14:42:00,74.0,54.0,-100.00,SW,232,13.0,-999.0,50,0.00,,,-99.99,,2013-07-05 21:42:00,
2013-07-05 15:01:00,75.0,54.0,-100.00,WSW,255,12.0,-999.0,47,0.00,,,-99.99,,2013-07-05 22:01:00,
2013-07-05 15:11:00,75.0,54.0,-100.00,WSW,255,12.0,-999.0,47,0.00,,,-99.99,,2013-07-05 22:11:00,
2013-07-05 15:21:00,75.0,54.0,-100.00,WSW,255,12.0,-999.0,47,0.00,,,-99.99,,2013-07-05 22:21:00,
2013-07-05 15:33:00,75.0,54.0,-100.00,WSW,255,12.0,-999.0,47,0.00,,,-99.99,,2013-07-05 22:33:00,
2013-07-05 15:43:00,75.0,54.0,-100.00,WSW,255,12.0,-999.0,47,0.00,,,-99.99,,2013-07-05 22:43:00,
2013-07-05 16:02:00,76.0,54.0,-100.00,West,267,14.0,-999.0,47,0.00,,,-99.99,,2013-07-05 23:02:00,
2013-07-05 16:11:00,76.0,54.0,-100.00,West,267,14.0,-999.0,47,0.00,,,-99.99,,2013-07-05 23:11:00,
2013-07-05 16:23:00,76.0,54.0,-100.00,West,267,14.0,-999.0,47,0.00,,,-99.99,,2013-07-05 23:23:00,
2013-07-05 16:32:00,76.0,54.0,-100.00,West,267,14.0,-999.0,47,0.00,,,-99.99,,2013-07-05 23:32:00,
2013-07-05 16:42:00,76.0,54.0,-100.00,West,267,14.0,-999.0,47,0.00,,,-99.99,,2013-07-05 23:42:00,
2013-07-05 17:01:00,75.0,55.0,-100.00,West,264,15.0,-999.0,49,0.00,,,-99.99,,2013-07-06 00:01:00,
2013-07-05 17:11:00,75.0,55.0,-100.00,West,264,15.0,-999.0,49,0.00,,,-99.99,,2013-07-06 00:11:00,
2013-07-05 17:42:00,75.0,55.0,-100.00,West,264,15.0,-999.0,49,0.00,,,-99.99,,2013-07-06 00:42:00,
2013-07-05 18:02:00,75.0,55.0,-100.00,West,263,14.0,-999.0,50,0.00,,,-99.99,,2013-07-06 01:02:00,
2013-07-05 18:12:00,75.0,55.0,-100.00,West,263,14.0,-999.0,50,0.00,,,-99.99,,2013-07-06 01:12:00,
2013-07-05 18:22:00,75.0,55.0,-100.00,West,263,14.0,-999.0,50,0.00,,,-99.99,,2013-07-06 01:22:00,
2013-07-05 18:33:00,75.0,55.0,-100.00,West,263,14.0,-999.0,50,0.00,,,-99.99,,2013-07-06 01:33:00,
2013-07-05 18:42:00,75.0,55.0,-100.00,West,263,14.0,-999.0,50,0.00,,,-99.99,,2013-07-06 01:42:00,
2013-07-05 19:02:00,73.0,54.0,-100.00,West,262,14.0,-999.0,51,0.00,,,-99.99,,2013-07-06 02:02:00,
2013-07-05 19:11:00,73.0,54.0,-100.00,West,262,14.0,-999.0,51,0.00,,,-99.99,,2013-07-06 02:11:00,
2013-07-05 19:22:00,73.0,54.0,-100.00,West,262,14.0,-999.0,51,0.00,,,-99.99,,2013-07-06 02:22:00,
2013-07-05 19:33:00,73.0,54.0,-100.00,West,262,14.0,-999.0,51,0.00,,,-99.99,,2013-07-06 02:33:00,
2013-07-05 19:43:00,73.0,54.0,-100.00,West,262,14.0,-999.0,51,0.00,,,-99.99,,2013-07-06 02:43:00,
2013-07-05 20:02:00,70.0,54.0,-100.00,West,266,11.0,-999.0,57,0.00,,,-99.99,,2013-07-06 03:02:00,
2013-07-05 20:11:00,70.0,54.0,-100.00,West,266,11.0,-999.0,57,0.00,,,-99.99,,2013-07-06 03:11:00,
2013-07-05 20:22:00,70.0,54.0,-100.00,West,266,11.0,-999.0,57,0.00,,,-99.99,,2013-07-06 03:22:00,
2013-07-05 20:34:00,70.0,54.0,-100.00,West,266,11.0,-999.0,57,0.00,,,-99.99,,2013-07-06 03:34:00,
2013-07-05 20:43:00,70.0,54.0,-100.00,West,266,11.0,-999.0,57,0.00,,,-99.99,,2013-07-06 03:43:00,
2013-07-05 21:02:00,63.0,53.0,-100.00,WNW,299,11.0,-999.0,71,0.00,,,-99.99,,2013-07-06 04:02:00,
2013-07-05 21:12:00,63.0,53.0,-100.00,WNW,299,11.0,-999.0,71,0.00,,,-99.99,,2013-07-06 04:12:00,
2013-07-05 21:22:00,63.0,53.0,-100.00,WNW,299,11.0,-999.0,71,0.00,,,-99.99,,2013-07-06 04:22:00,
2013-07-05 21:33:00,63.0,53.0,-100.00,WNW,299,11.0,-999.0,71,0.00,,,-99.99,,2013-07-06 04:33:00,
2013-07-05 21:43:00,63.0,53.0,-100.00,WNW,299,11.0,-999.0,71,0.00,,,-99.99,,2013-07-06 04:43:00,
2013-07-05 22:02:00,59.0,53.0,-100.00,WNW,296,14.0,-999.0,78,0.00,,,-99.99,,2013-07-06 05:02:00,
2013-07-05 22:12:00,59.0,53.0,-100.00,WNW,296,14.0,-999.0,78,0.00,,,-99.99,,2013-07-06 05:12:00,
2013-07-05 22:22:00,59.0,53.0,-100.00,WNW,296,14.0,-999.0,78,0.00,,,-99.99,,2013-07-06 05:22:00,
2013-07-05 22:33:00,59.0,53.0,-100.00,WNW,296,14.0,-999.0,78,0.00,,,-99.99,,2013-07-06 05:33:00,
2013-07-05 22:42:00,59.0,53.0,-100.00,WNW,296,14.0,-999.0,78,0.00,,,-99.99,,2013-07-06 05:42:00,
2013-07-05 23:01:00,58.0,52.0,-100.00,WNW,285,11.0,-999.0,82,0.00,,,-99.99,,2013-07-06 06:01:00,
2013-07-05 23:12:00,58.0,52.0,-100.00,WNW,285,11.0,-999.0,82,0.00,,,-99.99,,2013-07-06 06:12:00,
2013-07-05 23:22:00,58.0,52.0,-100.00,WNW,285,11.0,-999.0,82,0.00,,,-99.99,,2013-07-06 06:22:00,
2013-07-05 23:33:00,58.0,52.0,-100.00,WNW,285,11.0,-999.0,82,0.00,,,-99.99,,2013-07-06 06:33:00,
2013-07-05 23:43:00,58.0,52.0,-100.00,WNW,285,11.0,-999.0,82,0.00,,,-99.99,,2013-07-06 06:43:00,